NCAR-RAP Real-Time Weather Data

Output produced by METARs form (17 December 2018  15:24 UTC)
found at http://weather.rap.ucar.edu/surface/
 
RJFF 171500Z AUTO 32013KT 9999 -RA NSC 09/M01 Q1019 NOSIG RMK A3009
RJFF 171430Z AUTO 31012KT 270V340 9999 NSC 10/M02 Q1019 NOSIG RMK A3009
RJFF 171400Z AUTO 32012KT 290V350 9999 NSC 09/M02 Q1018 NOSIG RMK A3008
RJFF 171330Z 32011KT 280V340 9999 FEW040 BKN050 10/M01 Q1018 NOSIG RMK 1CU040 5SC050 A3008
RJFF 171300Z 32011KT 270V350 9999 FEW040 SCT050 10/M02 Q1018 NOSIG RMK 1CU040 3SC050 A3008
RJFF 171230Z 32012G22KT 9999 FEW040 10/M02 Q1018 NOSIG RMK 1CU040 A3007
RJFF 171200Z 31012KT 270V330 9999 FEW045 SCT060 10/M01 Q1018 NOSIG RMK 1SC045 3SC060 A3007
RJFF 171130Z 31011KT 9999 FEW045 SCT050 BKN060 10/M01 Q1018 NOSIG RMK 1SC045 4SC050 5SC060 A3006
RJFF 171100Z 31012KT 9999 FEW040 SCT050 BKN070 10/M02 Q1017 NOSIG RMK 1CU040 3SC050 5AC070 A3006
RJFF 171030Z 31012KT 270V340 9999 FEW040 SCT050 BKN060 10/M01 Q1017 NOSIG RMK 1CU040 4SC050 6SC060 A3005
RJFF 171000Z 31012G22KT 9999 FEW035 BKN050 BKN070 10/M00 Q1017 NOSIG RMK 1CU035 5SC050 6AC070 A3005
RJFF 170930Z 32012KT 9999 FEW035 SCT050 BKN070 10/M00 Q1017 NOSIG RMK 1CU035 4SC050 6AC070 A3004
RJFF 170900Z 32011KT 280V340 9999 FEW030 BKN050 BKN060 10/00 Q1017 NOSIG RMK 1CU030 5SC050 6SC060 A3003
RJFF 170830Z 31013KT 9999 FEW030 SCT045 BKN070 10/M00 Q1016 NOSIG RMK 1CU030 3SC045 6AC070 A3003
RJFF 170800Z 30010KT 9999 FEW035 BKN045 11/01 Q1016 NOSIG RMK 1CU035 6SC045 A3002
RJFF 170730Z 30010KT 270V360 9999 FEW035 SCT040 BKN060 11/01 Q1016 TEMPO TL0800 31015G25KT
RJFF 170700Z 29012KT 9999 FEW035 SCT040 BKN060 11/01 Q1016 TEMPO TL0800 31015G25KT
RJFF 170630Z 30013KT 260V340 9999 FEW035 SCT040 BKN060 11/01 Q1016 TEMPO TL0800 31015G25KT
RJFF 170600Z 30012KT 250V330 9999 FEW035 SCT040 BKN060 12/01 Q1016 TEMPO 30015G25KT RMK 1CU035 4CU040 5SC060 A3000
RJFF 170530Z 30012KT 9999 FEW035 BKN060 11/00 Q1015 TEMPO 30015G25KT RMK 1CU035 6SC060 A3000 MOD TURB OBS AT 0500Z 15NM S UME BTN 8000FT AND 5000FT IN DES E190
RJFF 170500Z 30013KT 270V330 9999 FEW035 SCT060 11/M00 Q1016 TEMPO 30015G25KT
RJFF 170435Z 30016G26KT 270V330 9999 FEW035 SCT060 12/M00 Q1016 RMK 1CU035 3SC060 A3000
RJFF 170430Z 30015KT 270V330 9999 FEW035 SCT060 12/M00 Q1016 TEMPO 30015G25KT
RJFF 170413Z 30015G26KT 260V330 9999 FEW035 SCT060 12/M00 Q1016 RMK 1CU035 3SC060 A3001
RJFF 170400Z 30012KT 270V330 9999 FEW035 SCT060 11/M01 Q1016 TEMPO 30015G25KT
RJFF 170330Z 30014KT 260V340 9999 FEW035 SCT060 12/00 Q1016 TEMPO 30015G25KT
RJFF 170300Z 30013G23KT 9999 FEW035 BKN050 11/M01 Q1016 NOSIG RMK 1CU035 5SC050 A3002
RJFF 170230Z 30013KT 9999 FEW035 BKN050 11/01 Q1016 TEMPO 30015G25KT
RJFF 170200Z 31011KT 280V340 9999 FEW030 SCT040 BKN050 11/01 Q1017 TEMPO 30015G25KT
RJFF 170130Z 31010KT 9999 FEW030 SCT040 BKN050 11/01 Q1017 TEMPO 31015G25KT
RJFF 170100Z 30010KT 260V340 9999 FEW030 SCT040 BKN050 11/00 Q1017 TEMPO 31015G25KT RMK 1CU030 3CU040 6SC050 A3005
RJFF 170030Z 30012KT 260V330 9999 FEW030 BKN060 11/01 Q1017 TEMPO 31015G25KT
RJFF 170000Z 31011KT 9999 FEW030 SCT040 BKN050 11/02 Q1017 TEMPO 31015G25KT RMK 1CU030 3CU040 5SC050 A3003
RJFF 162330Z 31012KT 9999 FEW030 SCT040 BKN060 10/02 Q1016 TEMPO 31015G25KT
RJFF 162300Z 30014KT 270V330 9999 FEW030 SCT040 BKN050 10/02 Q1016 TEMPO 31015G25KT
RJFF 162230Z 30014G24KT 9999 FEW030 SCT040 BKN050 10/02 Q1016 NOSIG RMK 1CU030 3CU040 6SC050 A3000
RJFF 162220Z 30015G25KT 230V330 9999 FEW030 SCT040 BKN050 10/03 Q1015 RMK 1CU030 3CU040 5SC050 A3000
RJFF 162200Z 30012KT 9999 FEW030 SCT040 BKN050 11/04 Q1015 NOSIG RMK 1CU030 3CU040 7SC050 A3000
RJFF 162130Z 30011KT 9999 FEW030 BKN060 11/03 Q1015 NOSIG RMK 1CU030 7SC060 A2998
RJFF 162100Z 29009KT 250V330 9999 FEW030 BKN060 11/04 Q1015 NOSIG RMK 1CU030 6SC060 A2997
RJFF 162030Z AUTO 29010G20KT 260V330 9999 FEW031 SCT039 BKN044 11/05 Q1014 NOSIG RMK A2997
RJFF 162011Z AUTO 28010KT 9999 FEW031 SCT033 BKN036 09/07 Q1014 RMK A2996
RJFF 162000Z AUTO 16004KT 130V210 9999 SCT033 SCT036 BKN045 08/07 Q1014 BECMG 31008KT
RJFF 161930Z AUTO 18004KT 9999 BKN034 BKN040 BKN050 08/07 Q1014 BECMG 31008KT
RJFF 161900Z AUTO 17003KT 130V190 9000 FEW042 OVC050 08/07 Q1014 BECMG 05005KT
RJFF 161830Z AUTO VRB01KT 9999 FEW033 SCT040 OVC050 08/07 Q1014 NOSIG RMK A2996
RJFF 161800Z AUTO 15003KT 130V190 5000 BR FEW035 BKN045 OVC050 08/07 Q1014 NOSIG RMK A2996
RJFF 161739Z AUTO 13002KT 5000 BR FEW023 SCT043 BKN045 08/07 Q1014 RMK A2996
RJFF 161730Z AUTO 15002KT 4100 BR FEW025 SCT031 BKN045 08/07 Q1014 BECMG 9000 NSW
RJFF 161727Z AUTO 16001KT 3900 BR SCT025 SCT034 BKN039 08/07 Q1014 RMK A2996
RJFF 161700Z AUTO VRB01KT 9999 -RA FEW026 SCT036 BKN042 08/06 Q1014 NOSIG RMK A2997
RJFF 161641Z AUTO 13001KT 6000 FEW024 SCT045 BKN050 08/06 Q1014 RMK A2997
RJFF 161635Z AUTO 14001KT 3900 BR FEW024 SCT046 BKN050 07/06 Q1014 RMK A2997
RJFF 161630Z AUTO 15002KT 5000 BR FEW024 BKN050 08/07 Q1014 NOSIG RMK A2997
RJFF 161626Z AUTO 15002KT 1500 R16/P2000N BR FEW024 BKN050 08/07 Q1014 RMK A2997
RJFF 161624Z AUTO 14002KT 2800 R16/P2000N BR FEW024 SCT050 07/06 Q1014 RMK A2997
RJFF 161603Z AUTO VRB01KT 3700 BR SCT040 08/07 Q1014 RMK A2997
RJFF 161600Z AUTO VRB01KT 6000 FEW040 SCT190 07/06 Q1014 BECMG 34005KT RMK A2997
RJFF 161534Z AUTO VRB01KT 4400 BR NSC 08/07 Q1014 RMK A2997
RJFF 161530Z AUTO 08001KT 8000 NSC 09/07 Q1014 NOSIG RMK A2997
RJFF 161529Z AUTO 09001KT 7000 NSC 08/07 Q1014 RMK A2997
RJFF 161516Z AUTO 14003KT 3900 BR FEW039 SCT070 08/07 Q1015 RMK A2997
RJFF 161510Z AUTO 15003KT 2400 BR FEW038 SCT070 08/07 Q1015 RMK A2997
RJFF 161500Z AUTO 16002KT 4100 BR FEW034 SCT070 BKN080 08/07 Q1015 BECMG TL1530 9000 NSW
RJFF 161430Z AUTO 13001KT 4300 BR FEW034 SCT060 BKN070 09/08 Q1015 BECMG TL1500 9000 NSW
RJFF 161425Z AUTO 13001KT 6000 FEW049 BKN060 BKN070 09/08 Q1015 RMK A2999
RJFF 161420Z AUTO 00000KT 4800 BR FEW049 BKN060 OVC080 09/08 Q1015 RMK A2999
RJFF 161400Z AUTO VRB01KT 6000 -RA FEW049 BKN060 OVC070 09/08 Q1015 NOSIG RMK A2999
RJFF 161330Z 14003KT 9999 -SHRA FEW010 SCT030 BKN060 09/08 Q1016 NOSIG RMK 1ST010 3CU030 6SC060 A3000
RJFF 161300Z VRB01KT 9999 FEW010 SCT030 BKN060 10/08 Q1016 NOSIG RMK 1ST010 4CU030 5SC060 A3001
RJFF 161230Z VRB02KT 9999 -SHRA FEW010 SCT030 BKN040 10/08 Q1016 TEMPO TL1400 4000 SHRA BR FEW005 BKN008 BKN010
RJFF 161200Z VRB02KT 9999 -SHRA FEW010 SCT030 BKN040 10/08 Q1017 TEMPO 4000 SHRA BR FEW005 BKN008 BKN010 RMK 1ST010 4CU030 5CU040 A3003
RJFF 161130Z 08003KT 360V150 9999 -SHRA FEW010 SCT020 BKN030 10/08 Q1017 TEMPO 4000 SHRA BR FEW005 BKN008 BKN010
RJFF 161100Z VRB02KT 6000 SHRA FEW008 BKN015 BKN025 10/08 Q1017 TEMPO 4000 SHRA BR FEW005 BKN008 BKN010
RJFF 161030Z VRB01KT 6000 -SHRA FEW008 BKN010 BKN020 10/08 Q1017 TEMPO 4000 SHRA BR FEW005 BKN008 BKN010
RJFF 161000Z 00000KT 6000 SHRA FEW008 BKN010 BKN020 10/08 Q1017 TEMPO FEW005 BKN008 BKN010 BECMG 34005KT 4000 -SHRA BR RMK 1ST008 5CU010 6CU020 A3004
RJFF 160930Z VRB02KT 7000 -SHRA FEW008 BKN015 BKN020 10/08 Q1017 TEMPO 4000 -SHRA BR FEW005 BKN008 BKN010 BECMG 34005KT
RJFF 160900Z VRB02KT 8000 -SHRA FEW010 SCT015 BKN020 10/08 Q1017 BECMG 34005KT TEMPO 4000 -SHRA BR FEW005 BKN008 BKN010
RJFF 160830Z VRB01KT 9000 -SHRA FEW015 SCT020 BKN025 10/08 Q1017 TEMPO 4000 -SHRA BR FEW005 BKN008 BKN010 BECMG TL0900 34009KT
RJFF 160800Z 17007KT 9000 -SHRA FEW015 SCT020 BKN025 10/07 Q1017 TEMPO 4000 -SHRA BR FEW005 BKN008 BKN010 BECMG TL0900 34009KT
RJFF 160730Z 16010KT 9000 -SHRA FEW015 SCT025 BKN030 10/07 Q1016 BECMG TL0830 34009KT TEMPO 4000 -SHRA BR FEW005 BKN008 BKN010
RJFF 160700Z 15010KT 9999 -RA FEW015 SCT035 BKN045 10/07 Q1016 BECMG TL0800 34009KT TEMPO 4000 -SHRA BR FEW005 BKN008 BKN010
RJFF 160630Z 15011KT 9999 -RA FEW010 SCT035 BKN045 10/07 Q1017 BECMG FM0700 TL0800 34009KT TEMPO FM0700 4000 -SHRA BR FEW005 BKN008 BKN010
RJFF 160600Z 14013KT 9999 -RA FEW010 SCT040 BKN050 10/07 Q1017 BECMG FM0630 34008KT TEMPO FM0630 4000 -SHRA BR FEW005 BKN008 BKN010
RJFF 160530Z 15016KT 9999 -RA FEW010 SCT050 BKN060 09/07 Q1017 BECMG FM0630 34008KT TEMPO FM0630 -SHRA 4000 FEW005 BKN008 BKN010
RJFF 160500Z 15015KT 9999 -RA FEW010 BKN060 BKN080 10/06 Q1017 BECMG FM0600 34008KT TEMPO FM0600 -SHRA 4000 FEW005 BKN008 BKN010 RMK 1ST010 5SC060 7AC080 A3006
RJFF 160430Z 15015KT 9999 FEW010 SCT060 BKN080 09/06 Q1018 NOSIG RMK 1ST010 4SC060 7AC080 A3006
RJFF 160400Z 15015KT 9999 FEW010 SCT060 BKN080 09/06 Q1018 NOSIG RMK 1ST010 3SC060 7AC080 A3008
RJFF 160330Z 15015KT 9999 FEW005 SCT060 BKN080 09/06 Q1019 NOSIG RMK 1ST005 3SC060 6AC080 A3010
RJFF 160300Z 16016KT 9999 FEW005 SCT060 BKN090 09/05 Q1019 NOSIG RMK 1ST005 3SC060 6AC090 A3011
RJFF 160230Z 16015KT 9999 -RA FEW005 SCT050 BKN060 08/05 Q1020 NOSIG RMK 1ST005 3SC050 7SC060 A3013
RJFF 160200Z 16012KT 9999 -RA FEW005 BKN050 BKN060 07/05 Q1021 NOSIG RMK 1ST005 5SC050 7SC060 A3016
RJFF 160130Z 16009KT 9999 -SHRA FEW010 SCT035 BKN050 07/04 Q1022 NOSIG RMK 1ST010 3CU035 6SC050 A3018
RJFF 160100Z 16008KT 9999 -SHRA FEW010 SCT035 BKN050 06/03 Q1022 NOSIG RMK 1ST010 4CU035 7SC050 A3020
RJFF 160030Z 16007KT 9999 -SHRA FEW010 SCT035 BKN050 07/03 Q1023 NOSIG RMK 1ST010 4CU035 6SC050 A3021
RJFF 160000Z 17006KT 9999 -SHRA FEW025 SCT035 BKN050 07/03 Q1022 NOSIG RMK 1CU025 4CU035 6SC050 A3021
RJFF 152330Z 16005KT 9999 FEW025 SCT035 BKN050 07/01 Q1022 NOSIG RMK 1CU025 3CU035 6SC050 A3020
RJFF 151330Z 16002KT 9999 FEW035 06/02 Q1027 NOSIG RMK 1CU035 A3033
RJFF 151300Z 16003KT 9999 FEW035 06/01 Q1027 NOSIG RMK 1CU035 A3034
RJFF 151230Z 16003KT 120V180 9999 FEW035 06/02 Q1027 NOSIG RMK 1CU035 A3034
RJFF 151200Z 12004KT 080V140 9999 FEW035 07/02 Q1027 NOSIG RMK 1CU035 A3035
RJFF 151130Z 18003KT 150V210 9999 FEW035 07/02 Q1028 NOSIG RMK 1CU035 A3037
RJFF 151100Z 20004KT 170V260 9999 FEW035 07/02 Q1028 NOSIG RMK 1CU035 A3037
RJFF 151030Z 12003KT 070V170 9999 FEW035 08/03 Q1028 NOSIG RMK 1CU035 A3037
RJFF 151000Z 08003KT 030V140 9999 FEW035 09/03 Q1028 NOSIG RMK 1CU035 A3037
RJFF 150930Z 07004KT 020V120 9999 FEW035 10/02 Q1028 NOSIG RMK 1CU035 A3037
RJFF 150900Z 03004KT 340V120 9999 FEW035 11/03 Q1028 NOSIG RMK 1CU035 A3036
RJFF 150830Z 33004KT 9999 FEW035 11/03 Q1027 NOSIG RMK 1CU035 A3035
RJFF 150800Z 34006KT 320V020 9999 FEW035 11/02 Q1027 BECMG 12004KT
RJFF 150730Z 33006KT 9999 FEW035 12/03 Q1027 NOSIG RMK 1CU035 A3035
RJFF 150700Z VRB02KT 9999 FEW035 12/02 Q1027 BECMG 01005KT
RJFF 150630Z VRB04KT 9999 FEW035 12/01 Q1027 BECMG 01005KT
RJFF 150600Z VRB05KT 9999 FEW035 13/02 Q1027 BECMG 01005KT
RJFF 150530Z 16004KT 110V200 9999 FEW030 13/01 Q1028 BECMG 33005KT
RJFF 150500Z 13003KT 020V180 9999 FEW030 12/01 Q1028 BECMG TL0530 33005KT
RJFF 150430Z VRB04KT 9999 FEW030 12/01 Q1028 BECMG TL0500 35005KT
RJFF 150400Z 25004KT 190V350 9999 FEW030 12/02 Q1029 NOSIG RMK 1CU030 A3039
RJFF 150330Z VRB03KT 9999 FEW030 11/01 Q1029 BECMG TL0500 35005KT